Thursday, December 18, 2014
13:27 UTC
  |  Log In   |  Register Free
Airport Search:

Henderson Field Airport
(KACZ)

Henderson Field Airport Diagram
No Airport Diagram Available

FAA data valid effective November 13, 2014 - January 08, 2015 (unless otherwise noted).

 
 
 
 
 
 
 
 
 
 
 
 
 
 

Current Aviation Weather for Henderson Field Airport (KACZ)

METAR data is unavailable for ACZ. The nearest METAR location is at KDPL (17 nm NE from ACZ).

The most recent METAR observation for KDPL was updated at: 1310
METAR Summary (Translated METAR)
KDPL
181255Z AUTO 00000KT 10SM CLR 03/00 A3018 RMK AO2 T00251003
(17 nm NE from KACZ)
KOAJ
181255Z AUTO 33003KT 10SM CLR 02/M01 A3017 RMK AO1
(20.4 nm NE from KACZ)
TAF Summary (Translated TAF)
KOAJ
(20.9 nm SE from KDPL)
181129Z 1812/1912 36005KT P6SM SCT150 FM190000 00000KT P6SM BKN100 AMD LTD TO CLD VIS AND WIND
  Airport Weather Conditions for KACZ

Current weather conditions are
not available for ACZ


The nearest NOAA weather station
is at DPL, (17 nm NE from ACZ)
  
 Current Weather at DPL
36° F
Fair
North winds at 3.5 mph
DPL NOAA Radar

Pressure: 30.17 in
Humidity: 83%
Wind: North at 3.5 MPH (3 KT)
Dew Point: 31.3°F
Visibility: 10.00 mi


Airport Weather Forecast for KACZ

Translated METAR and TAF for KDPL
Translated METAR for KDPL (1328 UTC 18 December 2014)
found at http://aviationweather.gov/adds/metars/
 
METAR text: KDPL 181315Z AUTO 00000KT 10SM CLR 03/00 A3017 RMK AO2 T00300000
Conditions at: KDPL (KENANSVILLE/DUPL, NC, US) observed 1315 UTC 18 December 2014
Temperature: 3.0°C (37°F)
Dewpoint: 0.0°C (32°F) [RH = 81%]
Pressure (altimeter): 30.17 inches Hg (1021.8 mb)
Winds: calm
Visibility: 10 or more miles (16+ km)
Ceiling: at least 12,000 feet AGL
Clouds: sky clear below 12,000 feet AGL
Weather: automated observation with no human augmentation;
there may or may not be significant weather present at this time
Translated TAF for KDPL

There is no translated TAF available for this airport

Find All Airport Services Find A Hotel Find A Rental Car Find A Golf Course Find A Restaurant $100 Hamburger



FBO's on the Field
FBO Company Facility Photos Services Transportation Aviation Fuel Prices: Prices include tax
Catering Weather Repair Courtesy Rental Type 100LL JetA JetA+ MOGAS 8087
 
Henderson Field

This FBO has not yet been rated
FS:Phillips 66
Last Updated: Dec-02
Login to update fuel prices
SS:
Contact Henderson FieldMore FBO Information
 
Add another FBO Facility Photos Catering Weather Repair Courtesy Rental Type 100LL JetA JetA+ MOGAS 8087
Services Transportation Aviation Fuel Prices: Prices include tax


model-print
model-print
model-print
model-print